Time;durP1;ratioP1;P1;durP2;ratioP2;P2;SDS_P1;SDS_P2;PMS_P1;PMS_P2;Temp;Humidity;BMP_temperature;BMP_pressure;BME280_temperature;BME280_humidity;BME280_pressure;Samples;Min_cycle;Max_cycle;Signal;HPM_P1;HPM_P2
2024/01/30 00:02:17;;;;;;;21.35;11.38;;;4.70;99.90;;;;;;5034903;28;20090;-60
2024/01/30 00:04:43;;;;;;;19.85;10.63;;;4.70;99.90;;;;;;5032525;28;20041;-60
2024/01/30 00:07:08;;;;;;;18.00;9.77;;;4.70;99.90;;;;;;5017469;28;20056;-60
2024/01/30 00:09:34;;;;;;;22.70;9.95;;;4.70;99.90;;;;;;5038575;28;20076;-59
2024/01/30 00:12:00;;;;;;;13.15;9.32;;;4.80;99.90;;;;;;5038109;28;20311;-60
2024/01/30 00:14:26;;;;;;;14.82;9.68;;;4.70;99.90;;;;;;5035145;28;20036;-60
2024/01/30 00:16:52;;;;;;;22.35;10.23;;;4.70;99.90;;;;;;5035694;28;20044;-60
2024/01/30 00:19:18;;;;;;;22.88;10.27;;;4.70;99.90;;;;;;5040259;28;20627;-60
2024/01/30 00:21:43;;;;;;;14.35;9.43;;;4.70;99.90;;;;;;5033947;28;20057;-60
2024/01/30 00:24:09;;;;;;;17.30;9.05;;;4.70;99.90;;;;;;5034771;28;20084;-60
2024/01/30 00:26:37;;;;;;;12.57;8.93;;;4.60;99.90;;;;;;5038306;28;20091;-60
2024/01/30 00:29:03;;;;;;;17.83;9.48;;;4.60;99.90;;;;;;5038998;28;20059;-60
2024/01/30 00:31:29;;;;;;;14.00;9.02;;;4.50;99.90;;;;;;5032930;28;20136;-60
2024/01/30 00:33:55;;;;;;;16.13;9.68;;;4.50;99.90;;;;;;5037742;28;20186;-60
2024/01/30 00:36:20;;;;;;;13.02;8.43;;;4.40;99.90;;;;;;5050607;28;20057;-60
2024/01/30 00:38:47;;;;;;;14.05;9.85;;;4.40;99.90;;;;;;5034637;28;20052;-60
2024/01/30 00:41:13;;;;;;;16.52;9.65;;;4.50;99.90;;;;;;5037339;28;20076;-60
2024/01/30 00:43:39;;;;;;;17.10;10.10;;;4.40;99.90;;;;;;5032617;28;20621;-59
2024/01/30 00:46:04;;;;;;;18.50;9.65;;;4.40;99.90;;;;;;5037108;28;20087;-59
2024/01/30 00:48:30;;;;;;;15.88;9.95;;;4.40;99.90;;;;;;5034035;28;20082;-60
2024/01/30 00:50:56;;;;;;;21.02;9.60;;;4.50;99.90;;;;;;5031509;28;20147;-59
2024/01/30 00:53:22;;;;;;;12.68;9.57;;;4.40;99.90;;;;;;5030173;28;20368;-60
2024/01/30 00:55:48;;;;;;;18.63;9.40;;;4.50;99.90;;;;;;5035414;28;20037;-60
2024/01/30 00:58:13;;;;;;;14.70;9.70;;;4.40;99.90;;;;;;5036404;28;20048;-59
2024/01/30 01:00:40;;;;;;;13.20;9.13;;;4.40;99.90;;;;;;5035482;28;20044;-60
2024/01/30 01:03:08;;;;;;;16.10;9.30;;;4.50;99.90;;;;;;5039270;28;20040;-60
2024/01/30 01:05:34;;;;;;;13.75;9.68;;;4.40;99.90;;;;;;5049726;28;20040;-60
2024/01/30 01:08:00;;;;;;;16.88;9.85;;;4.40;99.90;;;;;;5031806;28;20051;-60
2024/01/30 01:10:25;;;;;;;14.80;9.98;;;4.40;99.90;;;;;;5034967;28;20044;-59
2024/01/30 01:12:52;;;;;;;12.70;9.38;;;4.40;99.90;;;;;;5035333;28;20521;-60
2024/01/30 01:15:17;;;;;;;15.90;10.00;;;4.40;99.90;;;;;;5023457;28;20160;-60
2024/01/30 01:17:43;;;;;;;16.55;10.25;;;4.30;99.90;;;;;;5033271;28;20511;-59
2024/01/30 01:20:10;;;;;;;15.23;9.57;;;4.30;99.90;;;;;;5039472;28;20138;-60
2024/01/30 01:22:38;;;;;;;16.88;10.27;;;4.30;99.90;;;;;;5032497;28;20387;-60
2024/01/30 01:25:08;;;;;;;12.82;9.52;;;4.30;99.90;;;;;;5034562;28;20041;-60
2024/01/30 01:27:34;;;;;;;19.17;9.98;;;4.40;99.90;;;;;;5031797;28;20820;-60
2024/01/30 01:30:00;;;;;;;18.80;9.25;;;4.50;99.90;;;;;;5035891;28;20399;-60
2024/01/30 01:32:26;;;;;;;19.00;10.77;;;4.50;99.90;;;;;;5033264;28;20564;-60
2024/01/30 01:34:52;;;;;;;19.40;9.32;;;4.50;99.90;;;;;;5034077;28;20190;-60
2024/01/30 01:37:22;;;;;;;19.02;10.98;;;4.50;99.90;;;;;;5034078;28;20408;-60
2024/01/30 01:39:47;;;;;;;18.75;9.73;;;4.50;99.90;;;;;;5031528;28;20597;-59
2024/01/30 01:42:13;;;;;;;18.55;9.75;;;4.40;99.90;;;;;;5031403;28;20042;-59
2024/01/30 01:44:39;;;;;;;14.18;9.80;;;4.50;99.90;;;;;;5031071;28;20168;-60
2024/01/30 01:47:05;;;;;;;15.75;10.02;;;4.40;99.90;;;;;;5036074;28;20041;-60
2024/01/30 01:49:31;;;;;;;17.85;9.93;;;4.40;99.90;;;;;;5034448;28;20063;-60
2024/01/30 01:51:57;;;;;;;28.45;10.45;;;4.30;99.90;;;;;;5035975;28;20883;-60
2024/01/30 01:54:25;;;;;;;17.85;9.05;;;4.40;99.90;;;;;;5034485;28;20131;-60
2024/01/30 01:56:53;;;;;;;21.83;10.02;;;4.30;99.90;;;;;;5031162;28;20048;-59
2024/01/30 01:59:20;;;;;;;20.60;10.35;;;4.30;99.90;;;;;;5031479;28;20040;-60
2024/01/30 02:01:49;;;;;;;17.30;9.98;;;4.40;99.90;;;;;;5034665;28;20175;-59
2024/01/30 02:04:16;;;;;;;15.20;9.82;;;4.40;99.90;;;;;;5034980;28;20056;-60
2024/01/30 02:06:44;;;;;;;18.02;9.13;;;4.50;99.90;;;;;;5037995;28;20391;-60
2024/01/30 02:09:09;;;;;;;18.92;9.10;;;4.50;99.90;;;;;;5035867;28;20122;-60
2024/01/30 02:11:36;;;;;;;17.10;9.43;;;4.50;99.90;;;;;;5030938;28;20326;-59
2024/01/30 02:14:05;;;;;;;15.50;9.98;;;4.60;99.90;;;;;;5035144;28;20132;-59
2024/01/30 02:16:34;;;;;;;14.77;9.10;;;4.60;99.90;;;;;;5049914;28;20052;-60
2024/01/30 02:18:59;;;;;;;17.42;9.80;;;4.60;99.90;;;;;;5034155;28;20507;-60
2024/01/30 02:21:25;;;;;;;15.20;9.98;;;4.60;99.90;;;;;;5041917;28;20041;-60
2024/01/30 02:24:00;;;;;;;14.60;9.07;;;4.60;99.90;;;;;;5041547;28;20079;-59
2024/01/30 02:26:25;;;;;;;18.70;9.60;;;4.70;99.90;;;;;;5039455;28;20545;-60
2024/01/30 02:28:51;;;;;;;14.98;8.80;;;4.60;99.90;;;;;;5039248;28;20055;-60
2024/01/30 02:31:17;;;;;;;17.63;9.38;;;4.70;99.90;;;;;;5035111;28;20079;-60
2024/01/30 02:33:42;;;;;;;22.42;9.95;;;4.70;99.90;;;;;;5054454;28;20037;-60
2024/01/30 02:36:08;;;;;;;13.75;8.63;;;4.70;99.90;;;;;;5034987;28;20052;-60
2024/01/30 02:38:34;;;;;;;15.48;8.88;;;4.70;99.90;;;;;;5042303;28;20357;-60
2024/01/30 02:40:59;;;;;;;13.85;8.70;;;4.70;99.90;;;;;;5036317;28;20048;-60
2024/01/30 02:43:32;;;;;;;18.10;9.25;;;4.80;99.90;;;;;;5033883;28;20040;-59
2024/01/30 02:45:59;;;;;;;13.82;9.02;;;4.80;99.90;;;;;;5036377;28;20684;-59
2024/01/30 02:48:25;;;;;;;19.48;9.23;;;4.80;99.90;;;;;;5039125;28;20110;-59
2024/01/30 02:50:54;;;;;;;18.60;10.00;;;4.80;99.90;;;;;;5035861;28;20554;-60
2024/01/30 02:53:21;;;;;;;12.30;8.27;;;4.80;99.90;;;;;;5032436;28;20076;-60
2024/01/30 02:55:47;;;;;;;14.38;9.48;;;4.80;99.90;;;;;;5039960;28;20049;-60
2024/01/30 02:58:12;;;;;;;16.30;9.10;;;4.70;99.90;;;;;;5038198;28;20040;-60
2024/01/30 03:00:38;;;;;;;20.58;10.40;;;4.70;99.90;;;;;;5035430;28;20077;-60
2024/01/30 03:03:05;;;;;;;14.75;9.50;;;4.60;99.90;;;;;;5038269;28;20075;-59
2024/01/30 03:05:30;;;;;;;12.45;8.45;;;4.60;99.90;;;;;;5037155;28;20132;-60
2024/01/30 03:07:56;;;;;;;17.83;7.97;;;4.60;99.90;;;;;;5037927;28;20048;-60
2024/01/30 03:10:23;;;;;;;17.60;8.30;;;4.60;99.90;;;;;;5038974;28;20075;-59
2024/01/30 03:12:48;;;;;;;12.50;8.00;;;4.50;99.90;;;;;;5038582;28;20056;-60
2024/01/30 03:15:15;;;;;;;15.48;8.93;;;4.40;99.90;;;;;;5034172;28;20432;-60
2024/01/30 03:17:41;;;;;;;13.95;7.97;;;4.50;99.90;;;;;;5040997;28;20511;-59
2024/01/30 03:20:07;;;;;;;13.23;8.50;;;4.50;99.90;;;;;;5036199;28;20080;-59
2024/01/30 03:22:33;;;;;;;16.30;9.10;;;4.50;99.90;;;;;;5035750;28;20045;-60
2024/01/30 03:24:59;;;;;;;16.92;9.00;;;4.50;99.90;;;;;;5043741;28;20056;-60
2024/01/30 03:27:26;;;;;;;16.27;8.85;;;4.70;99.90;;;;;;5028093;28;20160;-59
2024/01/30 03:29:55;;;;;;;17.00;8.35;;;4.70;99.90;;;;;;5029830;28;20134;-60
2024/01/30 03:32:20;;;;;;;17.83;8.50;;;4.90;99.90;;;;;;5038261;28;20045;-60
2024/01/30 03:34:46;;;;;;;16.98;8.38;;;4.90;99.90;;;;;;5034234;28;20090;-59
2024/01/30 03:37:13;;;;;;;12.48;7.85;;;4.90;99.90;;;;;;5039091;28;20049;-60
2024/01/30 03:39:39;;;;;;;12.25;8.20;;;5.00;99.90;;;;;;5034399;28;20046;-60
2024/01/30 03:42:04;;;;;;;15.02;8.40;;;5.00;99.90;;;;;;5043175;28;20097;-60
2024/01/30 03:44:31;;;;;;;16.95;7.88;;;4.90;99.90;;;;;;5042579;28;20178;-60
2024/01/30 03:46:57;;;;;;;14.38;8.43;;;5.00;99.90;;;;;;5042869;28;20449;-60
2024/01/30 03:49:23;;;;;;;16.13;8.57;;;4.90;99.90;;;;;;5035039;28;20049;-60
2024/01/30 03:51:50;;;;;;;13.73;8.65;;;4.90;99.90;;;;;;5043077;28;20045;-60
2024/01/30 03:54:16;;;;;;;13.88;8.30;;;5.00;99.90;;;;;;5041422;28;20507;-60
2024/01/30 03:56:41;;;;;;;15.32;9.07;;;5.00;99.90;;;;;;5042958;28;20037;-60
2024/01/30 03:59:09;;;;;;;16.13;9.07;;;5.00;99.90;;;;;;5040943;28;20049;-59
2024/01/30 04:01:35;;;;;;;15.98;8.73;;;5.10;99.90;;;;;;5040438;28;20121;-59
2024/01/30 04:04:00;;;;;;;13.45;9.57;;;5.20;99.90;;;;;;5041450;28;20057;-60
2024/01/30 04:06:26;;;;;;;15.38;9.20;;;5.10;99.90;;;;;;5041770;28;20045;-60
2024/01/30 04:08:52;;;;;;;21.30;10.23;;;5.20;99.90;;;;;;5040279;28;20052;-60
2024/01/30 04:11:21;;;;;;;17.42;9.10;;;5.20;99.90;;;;;;5040220;28;20070;-60
2024/01/30 04:13:52;;;;;;;14.63;8.63;;;5.20;99.90;;;;;;5041257;28;20053;-59
2024/01/30 04:16:22;;;;;;;15.35;9.68;;;5.20;99.90;;;;;;5041101;28;20037;-60
2024/01/30 04:18:48;;;;;;;28.73;9.43;;;5.20;99.90;;;;;;5038441;28;20537;-60
2024/01/30 04:21:14;;;;;;;18.13;9.48;;;5.20;99.90;;;;;;5041344;28;20049;-60
2024/01/30 04:23:40;;;;;;;16.23;9.88;;;5.20;99.90;;;;;;5040520;28;20056;-60
2024/01/30 04:26:08;;;;;;;24.92;10.15;;;5.20;99.90;;;;;;5037553;28;20152;-59
2024/01/30 04:28:34;;;;;;;15.18;9.68;;;5.30;99.90;;;;;;5015436;28;20099;-59
2024/01/30 04:31:00;;;;;;;19.73;9.30;;;5.30;99.90;;;;;;5023131;28;20045;-60
2024/01/30 04:33:30;;;;;;;16.90;9.25;;;5.20;99.90;;;;;;5041884;28;20045;-60
2024/01/30 04:35:55;;;;;;;15.63;9.95;;;5.20;99.90;;;;;;5040270;28;20128;-60
2024/01/30 04:38:21;;;;;;;13.18;8.55;;;5.20;99.90;;;;;;5040961;28;20133;-60
2024/01/30 04:40:47;;;;;;;16.35;8.93;;;5.20;99.90;;;;;;5004753;28;20154;-60
2024/01/30 04:43:13;;;;;;;14.48;8.80;;;5.30;99.90;;;;;;5042772;28;20037;-60
2024/01/30 04:45:39;;;;;;;16.85;9.00;;;5.20;99.90;;;;;;5039355;28;20531;-60
2024/01/30 04:48:05;;;;;;;18.17;8.77;;;5.30;99.90;;;;;;5042681;28;20045;-60
2024/01/30 04:50:31;;;;;;;15.38;9.75;;;5.40;99.90;;;;;;5037928;28;20122;-60
2024/01/30 04:52:57;;;;;;;16.63;9.65;;;5.40;99.90;;;;;;5042377;28;20894;-60
2024/01/30 04:55:23;;;;;;;18.65;10.85;;;5.40;99.90;;;;;;5039554;28;20041;-60
2024/01/30 04:57:49;;;;;;;13.73;9.82;;;5.50;99.90;;;;;;5040686;28;20095;-59
2024/01/30 05:00:15;;;;;;;17.42;9.45;;;5.40;99.90;;;;;;5042870;28;20072;-59
2024/01/30 05:02:41;;;;;;;15.27;9.20;;;5.50;99.90;;;;;;5035778;28;20051;-60
2024/01/30 05:05:07;;;;;;;19.30;9.07;;;5.60;99.90;;;;;;5041325;28;20041;-60
2024/01/30 05:07:34;;;;;;;18.83;9.55;;;5.60;99.90;;;;;;5038001;28;20080;-60
2024/01/30 05:10:00;;;;;;;15.73;9.73;;;5.60;99.90;;;;;;5041630;28;20060;-60
2024/01/30 05:12:26;;;;;;;19.08;9.63;;;5.60;99.90;;;;;;5038635;28;20041;-60
2024/01/30 05:14:52;;;;;;;15.55;9.85;;;5.60;99.90;;;;;;5041742;28;20040;-60
2024/01/30 05:17:18;;;;;;;20.65;10.13;;;5.70;99.90;;;;;;5042389;28;20053;-60
2024/01/30 05:19:45;;;;;;;18.58;10.20;;;5.60;99.90;;;;;;5040074;28;20052;-60
2024/01/30 05:22:10;;;;;;;14.80;10.27;;;5.70;99.90;;;;;;5039824;28;20104;-60
2024/01/30 05:24:37;;;;;;;15.85;10.18;;;5.70;99.90;;;;;;5040214;28;20075;-60
2024/01/30 05:27:05;;;;;;;17.73;11.43;;;5.70;99.90;;;;;;5039075;28;20453;-60
2024/01/30 05:29:31;;;;;;;20.80;10.18;;;5.70;99.90;;;;;;5040331;28;20057;-60
2024/01/30 05:31:56;;;;;;;20.92;10.65;;;5.80;99.90;;;;;;5056760;28;20045;-60
2024/01/30 05:34:22;;;;;;;12.82;9.50;;;5.80;99.90;;;;;;5038214;28;20041;-60
2024/01/30 05:36:48;;;;;;;18.50;9.70;;;5.70;99.90;;;;;;5040942;28;20115;-60
2024/01/30 05:39:14;;;;;;;21.33;10.82;;;5.80;99.90;;;;;;5041721;28;20385;-60
2024/01/30 05:41:42;;;;;;;18.15;10.27;;;5.70;99.90;;;;;;5040489;28;20048;-60
2024/01/30 05:44:08;;;;;;;22.45;11.10;;;5.80;99.90;;;;;;5040496;28;20510;-60
2024/01/30 05:46:35;;;;;;;19.80;12.02;;;5.80;99.90;;;;;;5038932;28;20071;-60
2024/01/30 05:49:01;;;;;;;16.08;10.25;;;5.80;99.90;;;;;;5056447;28;20418;-60
2024/01/30 05:51:27;;;;;;;15.75;9.98;;;5.90;99.90;;;;;;5041284;28;20048;-60
2024/01/30 05:53:54;;;;;;;18.77;11.82;;;5.90;99.90;;;;;;5041340;28;20528;-60
2024/01/30 05:56:21;;;;;;;17.98;11.48;;;5.90;99.90;;;;;;5045072;28;20084;-59
2024/01/30 05:58:46;;;;;;;15.95;10.52;;;5.90;99.90;;;;;;5038230;28;20442;-60
2024/01/30 06:01:12;;;;;;;18.90;10.70;;;5.90;99.90;;;;;;5040633;28;20033;-60
2024/01/30 06:03:38;;;;;;;14.55;10.45;;;5.90;99.90;;;;;;5041865;28;20257;-60
2024/01/30 06:06:04;;;;;;;16.70;10.50;;;6.00;99.90;;;;;;5041256;28;20048;-60
2024/01/30 06:08:30;;;;;;;14.52;9.77;;;5.90;99.90;;;;;;5042858;28;20374;-59
2024/01/30 06:10:58;;;;;;;17.73;10.13;;;5.90;99.90;;;;;;5041555;28;20041;-60
2024/01/30 06:13:23;;;;;;;21.27;10.40;;;5.90;99.90;;;;;;5044270;28;20495;-60
2024/01/30 06:15:49;;;;;;;17.40;10.00;;;5.90;99.90;;;;;;5043214;28;20049;-60
2024/01/30 06:18:15;;;;;;;13.65;9.13;;;5.80;99.90;;;;;;5044932;28;20084;-60
2024/01/30 06:20:41;;;;;;;18.45;9.63;;;5.90;99.90;;;;;;5037827;28;20111;-60
2024/01/30 06:23:06;;;;;;;19.33;10.40;;;5.90;99.90;;;;;;5043153;28;20478;-60
2024/01/30 06:25:32;;;;;;;18.65;11.00;;;6.00;99.90;;;;;;5043729;28;20521;-60
2024/01/30 06:27:58;;;;;;;20.48;9.93;;;5.90;99.90;;;;;;5041831;28;20051;-60
2024/01/30 06:30:24;;;;;;;14.88;10.30;;;6.00;99.90;;;;;;5042450;28;20135;-60
2024/01/30 06:32:49;;;;;;;21.27;10.85;;;6.10;99.90;;;;;;5041790;28;20475;-60
2024/01/30 06:35:17;;;;;;;21.55;10.75;;;6.10;99.90;;;;;;5039308;28;20057;-60
2024/01/30 06:37:43;;;;;;;16.98;10.70;;;6.10;99.90;;;;;;5038802;28;20048;-60
2024/01/30 06:40:09;;;;;;;18.23;11.02;;;6.10;99.90;;;;;;5043120;28;20136;-60
2024/01/30 06:42:35;;;;;;;17.30;10.68;;;6.10;99.90;;;;;;5039183;28;20431;-59
2024/01/30 06:45:01;;;;;;;18.13;10.73;;;6.10;99.90;;;;;;5042390;28;20037;-60
2024/01/30 06:47:26;;;;;;;18.48;10.88;;;6.20;99.90;;;;;;5042851;28;20045;-60
2024/01/30 06:49:52;;;;;;;20.67;10.82;;;6.30;99.90;;;;;;5043846;28;20127;-60
2024/01/30 06:52:18;;;;;;;20.83;11.00;;;6.30;99.90;;;;;;5043584;28;20041;-60
2024/01/30 06:54:44;;;;;;;16.95;10.15;;;6.20;99.90;;;;;;5041744;28;20683;-60
2024/01/30 06:57:11;;;;;;;18.08;11.82;;;6.30;99.90;;;;;;5043657;28;20053;-60
2024/01/30 06:59:43;;;;;;;22.35;11.80;;;6.30;99.90;;;;;;5036435;28;20049;-60
2024/01/30 07:02:10;;;;;;;18.02;9.25;;;6.30;99.90;;;;;;5042294;28;20155;-60
2024/01/30 07:04:40;;;;;;;15.00;9.73;;;6.30;99.90;;;;;;5040421;28;20043;-60
2024/01/30 07:07:11;;;;;;;19.70;10.15;;;6.30;99.90;;;;;;5037727;28;20423;-60
2024/01/30 07:09:44;;;;;;;12.20;8.32;;;6.30;99.90;;;;;;5039067;28;20136;-60
2024/01/30 07:12:10;;;;;;;14.10;7.82;;;6.30;99.90;;;;;;5021685;28;20045;-60
2024/01/30 07:14:36;;;;;;;17.70;9.85;;;6.40;99.90;;;;;;5042948;28;20052;-60
2024/01/30 07:17:02;;;;;;;17.75;10.00;;;6.50;99.90;;;;;;5041218;28;20072;-60
2024/01/30 07:19:27;;;;;;;17.30;10.05;;;6.40;99.90;;;;;;5040899;28;20037;-59
2024/01/30 07:21:53;;;;;;;19.23;11.15;;;6.50;99.90;;;;;;5041563;28;20542;-59
2024/01/30 07:24:19;;;;;;;16.05;9.27;;;6.50;99.90;;;;;;5041064;28;20183;-60
2024/01/30 07:26:45;;;;;;;16.50;10.07;;;6.50;99.90;;;;;;5041813;28;20044;-60
2024/01/30 07:29:11;;;;;;;17.98;9.75;;;6.50;99.90;;;;;;5039892;28;20100;-60
2024/01/30 07:31:36;;;;;;;17.50;10.50;;;6.60;99.90;;;;;;5042437;28;20087;-59
2024/01/30 07:34:05;;;;;;;23.90;11.20;;;6.50;99.90;;;;;;5037983;28;20076;-59
2024/01/30 07:36:31;;;;;;;14.27;9.98;;;6.60;99.90;;;;;;5043078;28;20368;-60
2024/01/30 07:38:57;;;;;;;23.90;10.23;;;6.50;99.90;;;;;;5037320;28;20041;-60
2024/01/30 07:41:25;;;;;;;27.33;11.15;;;6.60;99.90;;;;;;5041214;28;20049;-60
2024/01/30 07:43:50;;;;;;;19.83;10.77;;;6.60;99.90;;;;;;5037078;28;20049;-60
2024/01/30 07:46:16;;;;;;;16.10;9.10;;;6.60;99.90;;;;;;5041811;28;20511;-60
2024/01/30 07:48:42;;;;;;;14.05;9.93;;;6.60;99.90;;;;;;5036515;28;20052;-60
2024/01/30 07:51:08;;;;;;;21.92;9.88;;;6.60;99.90;;;;;;5040814;28;20033;-60
2024/01/30 07:53:34;;;;;;;17.70;9.38;;;6.70;99.90;;;;;;5036624;28;20503;-60
2024/01/30 07:55:59;;;;;;;21.92;9.68;;;6.80;99.90;;;;;;5040968;28;20118;-60
2024/01/30 07:58:27;;;;;;;16.52;8.60;;;6.80;99.90;;;;;;5055868;28;20040;-60
2024/01/30 08:00:53;;;;;;;14.50;9.65;;;6.80;99.90;;;;;;5040425;28;20053;-60
2024/01/30 08:03:19;;;;;;;17.10;9.45;;;6.90;99.90;;;;;;5039918;28;20041;-60
2024/01/30 08:05:45;;;;;;;17.48;8.38;;;6.90;99.90;;;;;;5040385;28;20059;-60
2024/01/30 08:08:10;;;;;;;14.10;8.90;;;7.00;99.90;;;;;;5040229;28;20041;-60
2024/01/30 08:10:36;;;;;;;25.95;10.73;;;7.00;99.90;;;;;;5042721;28;20041;-59
2024/01/30 08:13:20;;;;;;;16.25;9.93;;;7.10;99.90;;;;;;5041137;28;20139;-60
2024/01/30 08:15:46;;;;;;;16.05;10.63;;;7.10;99.90;;;;;;5041951;28;20037;-60
2024/01/30 08:18:11;;;;;;;15.75;10.00;;;7.10;99.90;;;;;;5040727;28;20391;-60
2024/01/30 08:20:38;;;;;;;20.42;10.63;;;7.10;99.90;;;;;;5040346;28;20124;-60
2024/01/30 08:23:05;;;;;;;20.38;10.15;;;7.10;99.90;;;;;;5041605;28;20052;-59
2024/01/30 08:25:30;;;;;;;20.02;9.65;;;7.10;99.90;;;;;;5041156;28;20407;-59
2024/01/30 08:27:57;;;;;;;17.73;9.63;;;7.20;99.90;;;;;;5042263;28;20147;-59
2024/01/30 08:30:22;;;;;;;20.27;10.65;;;7.10;99.90;;;;;;5040370;28;20394;-60
2024/01/30 08:32:48;;;;;;;19.20;9.93;;;7.20;99.90;;;;;;5042218;28;20048;-59
2024/01/30 08:35:15;;;;;;;20.42;11.68;;;7.20;99.90;;;;;;5022550;28;20055;-60
2024/01/30 08:37:41;;;;;;;21.20;11.68;;;7.20;99.90;;;;;;5042177;28;20089;-60
2024/01/30 08:40:10;;;;;;;23.85;11.10;;;7.30;99.90;;;;;;5039817;28;20536;-60
2024/01/30 08:42:36;;;;;;;16.50;10.35;;;7.30;99.90;;;;;;5041451;28;20095;-60
2024/01/30 08:45:04;;;;;;;18.92;10.30;;;7.40;99.90;;;;;;5041792;28;20479;-60
2024/01/30 08:47:31;;;;;;;20.52;12.00;;;7.40;99.90;;;;;;5032312;28;20395;-60
2024/01/30 08:49:56;;;;;;;18.42;11.25;;;7.40;99.90;;;;;;5025369;28;20696;-60
2024/01/30 08:52:23;;;;;;;18.10;10.70;;;7.50;99.90;;;;;;5031061;28;20037;-59
2024/01/30 08:54:48;;;;;;;18.13;10.38;;;7.50;99.90;;;;;;5028266;28;20073;-60
2024/01/30 08:57:14;;;;;;;21.02;9.80;;;7.50;99.90;;;;;;5022243;28;20045;-59
2024/01/30 08:59:44;;;;;;;14.43;9.13;;;7.60;99.90;;;;;;5024746;28;20033;-60
2024/01/30 09:02:12;;;;;;;15.50;9.50;;;7.60;99.90;;;;;;5029328;28;20037;-60
2024/01/30 09:04:38;;;;;;;19.02;10.48;;;7.60;99.90;;;;;;5039417;28;20052;-60
2024/01/30 09:07:05;;;;;;;18.75;10.43;;;7.70;99.90;;;;;;5040551;28;20561;-60
2024/01/30 09:09:31;;;;;;;16.40;9.90;;;7.70;99.90;;;;;;5037064;28;20116;-60
2024/01/30 09:12:06;;;;;;;22.83;10.20;;;7.80;99.90;;;;;;5026635;28;20152;-60
2024/01/30 09:14:32;;;;;;;21.17;12.07;;;7.80;99.90;;;;;;5035861;28;20037;-59
2024/01/30 09:16:58;;;;;;;23.85;10.27;;;7.80;99.90;;;;;;5036568;28;20060;-60
2024/01/30 09:19:24;;;;;;;20.23;11.55;;;7.90;99.90;;;;;;5041096;28;20083;-60
2024/01/30 09:21:49;;;;;;;16.55;9.35;;;8.00;99.90;;;;;;5040275;28;20123;-60
2024/01/30 09:24:17;;;;;;;18.05;10.93;;;8.00;99.90;;;;;;5039849;28;20047;-60
2024/01/30 09:26:42;;;;;;;21.45;11.20;;;8.10;99.90;;;;;;5042222;28;20048;-60
2024/01/30 09:29:08;;;;;;;18.02;9.48;;;8.10;99.90;;;;;;5044864;28;20102;-60
2024/01/30 09:31:34;;;;;;;24.17;10.68;;;8.20;99.90;;;;;;5042183;28;20049;-59
2024/01/30 09:34:00;;;;;;;24.55;11.85;;;8.20;99.90;;;;;;5043944;28;20058;-60
2024/01/30 09:36:32;;;;;;;21.30;11.65;;;8.30;99.90;;;;;;5045355;28;20068;-59
2024/01/30 09:38:58;;;;;;;24.13;11.75;;;8.30;99.90;;;;;;5042338;28;20049;-60
2024/01/30 09:41:25;;;;;;;24.73;11.85;;;8.30;99.90;;;;;;5043600;28;20051;-60
2024/01/30 09:43:51;;;;;;;17.92;10.55;;;8.40;99.90;;;;;;5041963;28;20182;-60
2024/01/30 09:46:18;;;;;;;18.60;10.77;;;8.50;99.90;;;;;;5044758;28;20131;-60
2024/01/30 09:48:46;;;;;;;24.20;11.55;;;8.50;99.90;;;;;;5033260;28;20064;-59
2024/01/30 09:51:15;;;;;;;23.75;11.00;;;8.50;99.90;;;;;;5041618;28;20037;-60
2024/01/30 09:53:43;;;;;;;20.15;10.88;;;8.70;99.90;;;;;;5042407;28;20407;-59
2024/01/30 09:56:08;;;;;;;23.65;11.38;;;8.70;99.90;;;;;;5038636;28;20102;-60
2024/01/30 09:58:35;;;;;;;16.58;9.15;;;8.70;99.90;;;;;;5044748;28;20040;-59
2024/01/30 10:01:01;;;;;;;14.35;9.32;;;8.80;99.90;;;;;;5043660;28;20060;-60
2024/01/30 10:03:26;;;;;;;19.45;9.40;;;8.90;99.90;;;;;;5043022;28;20033;-59
2024/01/30 10:05:53;;;;;;;18.63;9.35;;;9.00;99.90;;;;;;5043548;28;20057;-60
2024/01/30 10:08:21;;;;;;;14.90;8.35;;;9.00;99.90;;;;;;5044222;28;20076;-60
2024/01/30 10:10:49;;;;;;;20.25;8.98;;;9.10;99.90;;;;;;5042642;28;20041;-60
2024/01/30 10:13:16;;;;;;;13.60;7.05;;;9.20;99.90;;;;;;5040266;28;20053;-60
2024/01/30 10:15:42;;;;;;;16.23;8.55;;;9.20;99.90;;;;;;5044846;28;20045;-60
2024/01/30 10:18:10;;;;;;;16.88;9.35;;;9.30;99.90;;;;;;5043312;28;20414;-59
2024/01/30 10:20:36;;;;;;;15.68;9.13;;;9.40;99.90;;;;;;5043654;28;20538;-59
2024/01/30 10:23:02;;;;;;;17.73;8.57;;;9.50;99.90;;;;;;5043120;28;20049;-60
2024/01/30 10:25:27;;;;;;;17.25;8.32;;;9.50;99.90;;;;;;5042915;28;20115;-60
2024/01/30 10:27:56;;;;;;;20.83;9.43;;;9.60;99.90;;;;;;5042301;28;20140;-59
2024/01/30 10:30:23;;;;;;;14.15;8.43;;;9.60;99.90;;;;;;5031728;28;20049;-60
2024/01/30 10:32:49;;;;;;;14.93;8.07;;;9.60;99.90;;;;;;5043325;28;20110;-60
2024/01/30 10:35:15;;;;;;;8.85;4.72;;;9.70;99.90;;;;;;5036303;28;20474;-60
2024/01/30 10:37:43;;;;;;;11.20;5.55;;;9.70;99.90;;;;;;5038073;28;20496;-59
2024/01/30 10:40:13;;;;;;;20.92;7.53;;;9.70;99.90;;;;;;5038844;28;20045;-60
2024/01/30 10:42:43;;;;;;;23.55;7.63;;;9.70;99.90;;;;;;5037479;28;20331;-60
2024/01/30 10:45:13;;;;;;;17.33;7.93;;;9.70;99.90;;;;;;5042317;28;20048;-59
2024/01/30 10:47:48;;;;;;;13.90;7.80;;;9.80;99.90;;;;;;5037445;28;20085;-60
2024/01/30 10:50:15;;;;;;;11.02;7.22;;;9.80;99.90;;;;;;5059173;28;20076;-60
2024/01/30 10:52:44;;;;;;;16.80;8.07;;;9.80;99.90;;;;;;5039209;28;20048;-59
2024/01/30 10:55:10;;;;;;;15.02;6.35;;;9.90;99.90;;;;;;5038947;28;20044;-60
2024/01/30 10:57:36;;;;;;;9.32;5.70;;;9.90;99.90;;;;;;5038255;28;20043;-60
2024/01/30 11:00:11;;;;;;;11.60;6.30;;;10.00;99.90;;;;;;5042829;28;20469;-59
2024/01/30 11:02:39;;;;;;;13.60;7.95;;;10.00;99.90;;;;;;5036288;28;20077;-60
2024/01/30 11:05:06;;;;;;;16.65;8.52;;;10.00;99.90;;;;;;5042929;28;20480;-60
2024/01/30 11:07:32;;;;;;;19.48;8.23;;;10.00;99.90;;;;;;5042288;28;20055;-59
2024/01/30 11:09:57;;;;;;;19.30;8.38;;;10.00;99.90;;;;;;5034613;28;20492;-59
2024/01/30 11:12:27;;;;;;;13.95;7.85;;;10.00;99.90;;;;;;5039315;28;20056;-59
2024/01/30 11:15:05;;;;;;;11.73;6.90;;;10.00;99.90;;;;;;5042361;28;20053;-59
2024/01/30 11:17:49;;;;;;;10.27;5.90;;;9.90;99.90;;;;;;5042054;28;20048;-60
2024/01/30 11:20:22;;;;;;;18.05;8.52;;;9.90;99.90;;;;;;5042213;28;20468;-59
2024/01/30 11:22:51;;;;;;;13.07;6.78;;;9.90;99.90;;;;;;5033372;28;20037;-59
2024/01/30 11:25:19;;;;;;;16.38;7.82;;;9.80;99.90;;;;;;5039786;28;20120;-59
2024/01/30 11:27:46;;;;;;;17.08;8.07;;;9.90;99.90;;;;;;5037208;28;20126;-60
2024/01/30 11:30:30;;;;;;;15.60;8.50;;;9.90;99.90;;;;;;5043766;28;20098;-59
2024/01/30 11:33:13;;;;;;;14.73;8.52;;;9.90;99.90;;;;;;5040527;28;20049;-59
2024/01/30 11:35:44;;;;;;;16.27;8.48;;;9.90;99.90;;;;;;5041172;28;20045;-59
2024/01/30 11:38:11;;;;;;;19.35;7.78;;;9.90;99.90;;;;;;5037445;28;20392;-59
2024/01/30 11:40:38;;;;;;;12.93;7.15;;;9.90;99.90;;;;;;5041303;28;20047;-60
2024/01/30 11:43:08;;;;;;;21.90;8.18;;;9.90;99.90;;;;;;5042980;28;20041;-60
2024/01/30 11:45:36;;;;;;;22.73;9.13;;;9.90;99.90;;;;;;5040355;28;20056;-60
2024/01/30 11:48:03;;;;;;;16.98;8.30;;;9.90;99.90;;;;;;5040435;28;20098;-61
2024/01/30 11:50:45;;;;;;;19.30;8.77;;;9.90;99.90;;;;;;5039477;28;20055;-59
2024/01/30 11:53:11;;;;;;;16.88;7.65;;;9.90;99.90;;;;;;5036957;28;20134;-60
2024/01/30 11:55:37;;;;;;;12.27;7.25;;;10.00;99.90;;;;;;5040622;28;20573;-60
2024/01/30 11:58:06;;;;;;;18.60;8.63;;;10.00;99.90;;;;;;5022540;28;20048;-60
2024/01/30 12:00:33;;;;;;;13.05;7.65;;;10.00;99.90;;;;;;5029864;28;20514;-60
2024/01/30 12:03:00;;;;;;;18.48;7.97;;;10.00;99.90;;;;;;5039015;28;20037;-60
2024/01/30 12:05:27;;;;;;;15.60;8.05;;;10.10;99.90;;;;;;5035004;28;20876;-59
2024/01/30 12:07:53;;;;;;;19.25;7.95;;;10.10;99.90;;;;;;5037282;28;20056;-60
2024/01/30 12:10:19;;;;;;;17.23;6.68;;;10.10;99.90;;;;;;5037594;28;20065;-60
2024/01/30 12:12:47;;;;;;;32.33;8.07;;;10.10;99.90;;;;;;5040833;28;20087;-60
2024/01/30 12:15:14;;;;;;;9.25;3.38;;;10.20;99.90;;;;;;5023079;28;20049;-59
2024/01/30 12:17:40;;;;;;;9.95;4.65;;;10.20;99.90;;;;;;5039171;28;20048;-60
2024/01/30 12:20:08;;;;;;;15.30;6.20;;;10.20;99.90;;;;;;5037595;28;20048;-60
2024/01/30 12:22:44;;;;;;;17.48;6.13;;;10.30;99.90;;;;;;5035850;28;20133;-60
2024/01/30 12:25:30;;;;;;;7.93;4.13;;;10.20;99.90;;;;;;5041011;28;20598;-60
2024/01/30 12:27:56;;;;;;;10.38;3.20;;;10.20;99.90;;;;;;5036970;28;20052;-59
2024/01/30 12:30:22;;;;;;;15.48;5.25;;;10.10;99.90;;;;;;5041769;28;20529;-60
2024/01/30 12:32:50;;;;;;;6.72;2.95;;;10.10;99.90;;;;;;5039039;28;20041;-59
2024/01/30 12:35:19;;;;;;;12.60;3.25;;;10.10;99.90;;;;;;5036443;28;20041;-60
2024/01/30 12:37:46;;;;;;;8.13;2.50;;;10.00;99.90;;;;;;5033626;28;20040;-60
2024/01/30 12:40:14;;;;;;;17.05;4.28;;;10.00;99.90;;;;;;5039355;28;20045;-60
2024/01/30 12:42:46;;;;;;;5.45;2.40;;;10.00;99.90;;;;;;5008967;28;20103;-60